Time;durP1;ratioP1;P1;durP2;ratioP2;P2;SDS_P1;SDS_P2;PMS_P1;PMS_P2;Temp;Humidity;BMP_temperature;BMP_pressure;BME280_temperature;BME280_humidity;BME280_pressure;Samples;Min_cycle;Max_cycle;Signal;HPM_P1;HPM_P2
2022/09/13 00:02:18;;;;;;;2.50;2.30;;;;;;;;;;5069112;28;20200;-64
2022/09/13 00:04:46;;;;;;;3.30;2.43;;;;;;;;;;5060081;28;20224;-64
2022/09/13 00:07:14;;;;;;;3.83;2.50;;;;;;;;;;5064839;28;20589;-64
2022/09/13 00:09:42;;;;;;;4.90;2.50;;;;;;;;;;5059164;28;20207;-64
2022/09/13 00:12:10;;;;;;;2.57;2.27;;;;;;;;;;5065323;28;20212;-63
2022/09/13 00:14:38;;;;;;;2.13;2.03;;;;;;;;;;5054430;28;20226;-63
2022/09/13 00:17:05;;;;;;;3.37;3.07;;;;;;;;;;5070042;28;20751;-64
2022/09/13 00:19:35;;;;;;;2.83;2.63;;;;;;;;;;5057283;28;20218;-64
2022/09/13 00:22:05;;;;;;;3.63;2.20;;;;;;;;;;5064389;28;20217;-64
2022/09/13 00:24:33;;;;;;;3.43;2.57;;;;;;;;;;5056262;28;20223;-63
2022/09/13 00:27:01;;;;;;;2.77;2.57;;;;;;;;;;5065276;28;20202;-63
2022/09/13 00:29:29;;;;;;;2.77;2.57;;;;;;;;;;5055764;28;20200;-64
2022/09/13 00:31:57;;;;;;;2.50;2.30;;;;;;;;;;5068147;28;20685;-64
2022/09/13 00:34:25;;;;;;;2.53;2.30;;;;;;;;;;5056600;28;20242;-62
2022/09/13 00:36:54;;;;;;;3.50;2.37;;;;;;;;;;5068464;28;20226;-62
2022/09/13 00:39:22;;;;;;;4.87;2.20;;;;;;;;;;5056804;28;20230;-64
2022/09/13 00:41:50;;;;;;;2.80;2.37;;;;;;;;;;5068239;28;20217;-64
2022/09/13 00:44:37;;;;;;;3.03;2.37;;;;;;;;;;5055238;28;20702;-62
2022/09/13 00:47:05;;;;;;;2.83;2.63;;;;;;;;;;5065634;28;20204;-64
2022/09/13 00:49:36;;;;;;;2.40;2.20;;;;;;;;;;5055445;28;20202;-62
2022/09/13 00:52:10;;;;;;;5.00;2.80;;;;;;;;;;5071552;28;20588;-62
2022/09/13 00:54:39;;;;;;;2.90;2.60;;;;;;;;;;5063509;28;20236;-62
2022/09/13 00:57:08;;;;;;;5.37;2.70;;;;;;;;;;5066880;28;20210;-64
2022/09/13 00:59:39;;;;;;;2.73;2.10;;;;;;;;;;5056946;28;20225;-64
2022/09/13 01:02:07;;;;;;;6.80;2.73;;;;;;;;;;5042151;28;20262;-64
2022/09/13 01:04:36;;;;;;;2.90;2.67;;;;;;;;;;5059800;28;20247;-64
2022/09/13 01:07:07;;;;;;;3.10;2.80;;;;;;;;;;5077206;28;20214;-64
2022/09/13 01:09:37;;;;;;;4.70;2.67;;;;;;;;;;5073443;28;20198;-64
2022/09/13 01:12:06;;;;;;;2.40;2.27;;;;;;;;;;5055790;28;20660;-64
2022/09/13 01:14:35;;;;;;;3.77;2.70;;;;;;;;;;5067061;28;20228;-64
2022/09/13 01:17:03;;;;;;;2.53;2.30;;;;;;;;;;5072719;28;20208;-64
2022/09/13 01:19:31;;;;;;;3.33;2.90;;;;;;;;;;5060557;28;20223;-64
2022/09/13 01:22:07;;;;;;;5.47;2.67;;;;;;;;;;5071427;28;20587;-64
2022/09/13 01:24:56;;;;;;;4.57;3.20;;;;;;;;;;5058948;28;20236;-64
2022/09/13 01:27:30;;;;;;;2.97;2.77;;;;;;;;;;5050489;28;20211;-64
2022/09/13 01:30:08;;;;;;;5.90;3.17;;;;;;;;;;5060304;28;20998;-64
2022/09/13 01:32:42;;;;;;;4.70;2.80;;;;;;;;;;5071993;28;20737;-64
2022/09/13 01:35:15;;;;;;;6.03;2.97;;;;;;;;;;5064275;28;20219;-64
2022/09/13 01:37:47;;;;;;;3.33;2.70;;;;;;;;;;5069014;28;20205;-64
2022/09/13 01:40:18;;;;;;;2.90;2.70;;;;;;;;;;5065488;28;20223;-64
2022/09/13 01:42:54;;;;;;;3.20;2.53;;;;;;;;;;5064726;28;20212;-64
2022/09/13 01:45:29;;;;;;;3.87;3.20;;;;;;;;;;5054166;28;20199;-63
2022/09/13 01:47:59;;;;;;;4.57;3.03;;;;;;;;;;5056923;28;20202;-64
2022/09/13 01:50:32;;;;;;;4.80;3.30;;;;;;;;;;5059967;28;20207;-64
2022/09/13 01:53:04;;;;;;;3.10;2.87;;;;;;;;;;5078393;28;20242;-64
2022/09/13 01:55:34;;;;;;;3.00;2.80;;;;;;;;;;5075266;28;20213;-64
2022/09/13 01:58:09;;;;;;;4.10;3.00;;;;;;;;;;5073990;28;20219;-64
2022/09/13 02:00:42;;;;;;;3.90;3.17;;;;;;;;;;5052946;28;20223;-64
2022/09/13 02:03:11;;;;;;;3.90;2.80;;;;;;;;;;5058038;28;20199;-64
2022/09/13 02:05:41;;;;;;;4.07;3.10;;;;;;;;;;5047333;28;20203;-64
2022/09/13 02:08:10;;;;;;;3.70;2.83;;;;;;;;;;5059019;28;20200;-64
2022/09/13 02:10:40;;;;;;;4.47;3.40;;;;;;;;;;5067092;28;20197;-64
2022/09/13 02:13:10;;;;;;;4.77;3.03;;;;;;;;;;5055289;28;20200;-64
2022/09/13 02:15:41;;;;;;;7.13;3.43;;;;;;;;;;5067444;28;20199;-64
2022/09/13 02:18:10;;;;;;;3.30;3.00;;;;;;;;;;5061415;28;20212;-64
2022/09/13 02:20:40;;;;;;;3.13;2.80;;;;;;;;;;5066350;28;20237;-64
2022/09/13 02:23:10;;;;;;;3.00;2.80;;;;;;;;;;5059095;28;20547;-64
2022/09/13 02:25:39;;;;;;;3.20;2.90;;;;;;;;;;5069738;28;20543;-64
2022/09/13 02:28:09;;;;;;;3.70;3.30;;;;;;;;;;5058793;28;20545;-64
2022/09/13 02:30:40;;;;;;;3.90;3.10;;;;;;;;;;5066606;28;20200;-64
2022/09/13 02:33:12;;;;;;;5.70;2.90;;;;;;;;;;5066751;28;20213;-64
2022/09/13 02:35:42;;;;;;;3.57;3.00;;;;;;;;;;5070885;28;20202;-64
2022/09/13 02:38:13;;;;;;;6.47;2.97;;;;;;;;;;5058969;28;20674;-64
2022/09/13 02:40:43;;;;;;;3.63;3.33;;;;;;;;;;5069709;28;20270;-64
2022/09/13 02:43:14;;;;;;;4.10;2.90;;;;;;;;;;5057384;28;20239;-64
2022/09/13 02:45:44;;;;;;;4.80;3.23;;;;;;;;;;5065988;28;20194;-64
2022/09/13 02:48:19;;;;;;;4.30;3.90;;;;;;;;;;5066067;28;20213;-65
2022/09/13 02:50:51;;;;;;;4.43;3.10;;;;;;;;;;5070270;28;20203;-64
2022/09/13 02:53:24;;;;;;;3.30;3.00;;;;;;;;;;5058421;28;20231;-64
2022/09/13 02:55:54;;;;;;;3.43;3.13;;;;;;;;;;5069725;28;20594;-64
2022/09/13 02:58:25;;;;;;;3.23;2.93;;;;;;;;;;5058668;28;20212;-64
2022/09/13 03:00:54;;;;;;;4.73;3.67;;;;;;;;;;5063819;28;20251;-64
2022/09/13 03:03:24;;;;;;;3.23;2.93;;;;;;;;;;5068745;28;20278;-64
2022/09/13 03:05:52;;;;;;;3.83;3.53;;;;;;;;;;5064518;28;20547;-64
2022/09/13 03:08:21;;;;;;;3.73;3.10;;;;;;;;;;5060819;28;20207;-64
2022/09/13 03:10:54;;;;;;;4.53;3.17;;;;;;;;;;5070880;28;20207;-64
2022/09/13 03:13:40;;;;;;;5.27;3.67;;;;;;;;;;5072551;28;20219;-65
2022/09/13 03:16:16;;;;;;;4.13;3.40;;;;;;;;;;5072312;28;20568;-64
2022/09/13 03:18:52;;;;;;;4.40;3.30;;;;;;;;;;5066586;28;20198;-64
2022/09/13 03:21:30;;;;;;;4.23;3.07;;;;;;;;;;5062462;28;20252;-64
2022/09/13 03:24:03;;;;;;;3.97;3.67;;;;;;;;;;5064430;28;20554;-64
2022/09/13 03:26:39;;;;;;;3.63;3.33;;;;;;;;;;5061420;28;20211;-64
2022/09/13 03:29:11;;;;;;;4.13;3.40;;;;;;;;;;5064141;28;20208;-64
2022/09/13 03:31:43;;;;;;;3.80;3.40;;;;;;;;;;5071057;28;20643;-64
2022/09/13 03:34:17;;;;;;;4.20;2.90;;;;;;;;;;5056408;28;20269;-64
2022/09/13 03:36:48;;;;;;;4.63;3.20;;;;;;;;;;5057998;28;20222;-64
2022/09/13 03:39:20;;;;;;;7.03;3.87;;;;;;;;;;5065010;28;20221;-63
2022/09/13 03:41:51;;;;;;;7.93;3.87;;;;;;;;;;5061717;28;20232;-64
2022/09/13 03:44:21;;;;;;;3.40;3.20;;;;;;;;;;5063790;28;20230;-64
2022/09/13 03:46:52;;;;;;;5.23;2.97;;;;;;;;;;5070913;28;20210;-64
2022/09/13 03:49:22;;;;;;;5.03;3.07;;;;;;;;;;5063866;28;20202;-63
2022/09/13 03:51:51;;;;;;;6.40;3.70;;;;;;;;;;5054773;28;20227;-64
2022/09/13 03:54:20;;;;;;;8.87;3.80;;;;;;;;;;5054192;28;20226;-63
2022/09/13 03:57:08;;;;;;;5.57;3.80;;;;;;;;;;5060744;28;20670;-64
2022/09/13 03:59:37;;;;;;;5.20;3.87;;;;;;;;;;5065892;28;20210;-64
2022/09/13 04:02:06;;;;;;;3.57;3.20;;;;;;;;;;5056551;28;20226;-64
2022/09/13 04:04:35;;;;;;;7.50;3.30;;;;;;;;;;5057407;28;20223;-63
2022/09/13 04:07:04;;;;;;;5.23;3.00;;;;;;;;;;5057805;28;20214;-62
2022/09/13 04:09:32;;;;;;;3.23;2.93;;;;;;;;;;5068201;28;20230;-60
2022/09/13 04:12:00;;;;;;;5.27;3.70;;;;;;;;;;5058784;28;20570;-63
2022/09/13 04:14:28;;;;;;;7.40;3.20;;;;;;;;;;5046108;28;20223;-62
2022/09/13 04:16:56;;;;;;;3.17;2.97;;;;;;;;;;5064007;28;20211;-61
2022/09/13 04:19:24;;;;;;;3.67;2.83;;;;;;;;;;5055234;28;20211;-61
2022/09/13 04:21:54;;;;;;;6.37;3.43;;;;;;;;;;5054665;28;20226;-61
2022/09/13 04:24:25;;;;;;;3.40;3.10;;;;;;;;;;5054379;28;20230;-61
2022/09/13 04:26:53;;;;;;;7.70;3.00;;;;;;;;;;5054849;28;20575;-61
2022/09/13 04:29:21;;;;;;;5.13;3.40;;;;;;;;;;5055273;28;20212;-61
2022/09/13 04:31:50;;;;;;;6.30;3.10;;;;;;;;;;5069587;28;20205;-61
2022/09/13 04:34:21;;;;;;;4.13;3.20;;;;;;;;;;5075291;28;20227;-61
2022/09/13 04:36:49;;;;;;;3.60;2.83;;;;;;;;;;5073235;28;20212;-61
2022/09/13 04:39:18;;;;;;;4.87;3.20;;;;;;;;;;5057380;28;20204;-62
2022/09/13 04:41:47;;;;;;;8.67;3.47;;;;;;;;;;5057122;28;20224;-61
2022/09/13 04:44:16;;;;;;;4.43;2.60;;;;;;;;;;5056959;28;20228;-61
2022/09/13 04:46:46;;;;;;;3.53;2.40;;;;;;;;;;5057041;28;20302;-61
2022/09/13 04:49:15;;;;;;;4.60;2.70;;;;;;;;;;5057743;28;20208;-61
2022/09/13 04:51:43;;;;;;;4.67;2.73;;;;;;;;;;5060824;28;20240;-61
2022/09/13 04:54:12;;;;;;;3.20;2.70;;;;;;;;;;5061112;28;20238;-61
2022/09/13 04:56:44;;;;;;;4.03;3.13;;;;;;;;;;5060788;28;20213;-61
2022/09/13 04:59:13;;;;;;;3.17;2.87;;;;;;;;;;5060865;28;20216;-61
2022/09/13 05:01:41;;;;;;;4.37;3.30;;;;;;;;;;5060964;28;20582;-61
2022/09/13 05:04:09;;;;;;;6.97;3.37;;;;;;;;;;5061002;28;20232;-61
2022/09/13 05:06:38;;;;;;;4.30;3.23;;;;;;;;;;5061262;28;20209;-61
2022/09/13 05:09:06;;;;;;;4.20;3.20;;;;;;;;;;5060729;28;20571;-61
2022/09/13 05:11:33;;;;;;;3.60;3.20;;;;;;;;;;5060927;28;20211;-61
2022/09/13 05:14:04;;;;;;;5.90;3.30;;;;;;;;;;5060263;28;20224;-61
2022/09/13 05:16:32;;;;;;;4.27;3.07;;;;;;;;;;5060459;28;20209;-61
2022/09/13 05:19:00;;;;;;;3.90;3.50;;;;;;;;;;5060886;28;20209;-61
2022/09/13 05:21:29;;;;;;;3.30;3.00;;;;;;;;;;5060681;28;20236;-61
2022/09/13 05:23:57;;;;;;;5.20;3.10;;;;;;;;;;5060636;28;20233;-61
2022/09/13 05:26:26;;;;;;;3.50;3.17;;;;;;;;;;5060568;28;20217;-61
2022/09/13 05:28:54;;;;;;;4.73;3.23;;;;;;;;;;5060433;28;20214;-61
2022/09/13 05:31:24;;;;;;;4.83;3.70;;;;;;;;;;5060247;28;20585;-61
2022/09/13 05:33:53;;;;;;;4.20;3.00;;;;;;;;;;5060301;28;20233;-61
2022/09/13 05:36:21;;;;;;;3.40;2.90;;;;;;;;;;5060323;28;21637;-60
2022/09/13 05:38:49;;;;;;;6.73;3.37;;;;;;;;;;5060036;28;20536;-60
2022/09/13 05:41:37;;;;;;;6.53;3.30;;;;;;;;;;5059893;28;20238;-60
2022/09/13 05:44:05;;;;;;;5.30;3.30;;;;;;;;;;5059847;28;20596;-60
2022/09/13 05:46:41;;;;;;;3.97;3.13;;;;;;;;;;5060078;28;20209;-60
2022/09/13 05:49:11;;;;;;;4.97;3.50;;;;;;;;;;5059961;28;20581;-60
2022/09/13 05:51:39;;;;;;;5.97;3.20;;;;;;;;;;5059904;28;20307;-60
2022/09/13 05:54:07;;;;;;;6.57;3.63;;;;;;;;;;5059777;28;20547;-60
2022/09/13 05:56:35;;;;;;;3.17;2.83;;;;;;;;;;5059837;28;20262;-60
2022/09/13 05:59:03;;;;;;;4.03;3.53;;;;;;;;;;5059466;28;20212;-60
2022/09/13 06:01:31;;;;;;;4.73;3.77;;;;;;;;;;5058387;28;20213;-60
2022/09/13 06:04:01;;;;;;;5.87;3.80;;;;;;;;;;5059485;28;20656;-62
2022/09/13 06:06:29;;;;;;;5.50;3.70;;;;;;;;;;5059654;28;20210;-62
2022/09/13 06:08:57;;;;;;;6.17;3.43;;;;;;;;;;5059611;28;20211;-62
2022/09/13 06:11:25;;;;;;;3.93;3.53;;;;;;;;;;5059728;28;20208;-61
2022/09/13 06:13:53;;;;;;;5.33;3.50;;;;;;;;;;5058080;28;20676;-62
2022/09/13 06:16:21;;;;;;;6.53;3.97;;;;;;;;;;5058995;28;20214;-62
2022/09/13 06:18:49;;;;;;;4.70;3.50;;;;;;;;;;5059680;28;20244;-62
2022/09/13 06:21:20;;;;;;;4.00;3.70;;;;;;;;;;5059757;28;20213;-62
2022/09/13 06:23:54;;;;;;;5.50;3.40;;;;;;;;;;5059339;28;20235;-62
2022/09/13 06:26:22;;;;;;;5.03;3.77;;;;;;;;;;5059103;28;20207;-60
2022/09/13 06:28:51;;;;;;;5.73;3.90;;;;;;;;;;5059197;28;20210;-62
2022/09/13 06:31:21;;;;;;;5.03;3.87;;;;;;;;;;5059276;28;20205;-62
2022/09/13 06:33:49;;;;;;;6.17;4.10;;;;;;;;;;5059033;28;20580;-61
2022/09/13 06:36:18;;;;;;;5.10;3.83;;;;;;;;;;5055237;28;20202;-60
2022/09/13 06:38:48;;;;;;;5.47;3.80;;;;;;;;;;5057192;28;20203;-59
2022/09/13 06:41:18;;;;;;;5.80;3.73;;;;;;;;;;5057820;28;20215;-62
2022/09/13 06:43:46;;;;;;;6.00;3.47;;;;;;;;;;5059195;28;20221;-64
2022/09/13 06:46:15;;;;;;;4.73;3.77;;;;;;;;;;5077624;28;20258;-64
2022/09/13 06:48:48;;;;;;;7.53;3.57;;;;;;;;;;5060356;28;20616;-64
2022/09/13 06:51:18;;;;;;;7.00;3.30;;;;;;;;;;5056136;28;20239;-65
2022/09/13 06:53:47;;;;;;;7.70;3.57;;;;;;;;;;5058076;28;20221;-65
2022/09/13 06:56:17;;;;;;;4.50;3.27;;;;;;;;;;5058519;28;20211;-65
2022/09/13 06:58:47;;;;;;;6.90;3.10;;;;;;;;;;5055549;28;20221;-64
2022/09/13 07:01:17;;;;;;;4.63;3.50;;;;;;;;;;5055684;28;20205;-63
2022/09/13 07:03:46;;;;;;;8.67;3.10;;;;;;;;;;5062879;28;20311;-64
2022/09/13 07:06:15;;;;;;;4.37;2.60;;;;;;;;;;5047560;28;20272;-61
2022/09/13 07:08:49;;;;;;;5.87;2.83;;;;;;;;;;5065899;28;20609;-62
2022/09/13 07:11:19;;;;;;;3.00;2.80;;;;;;;;;;5062063;28;20286;-63
2022/09/13 07:13:49;;;;;;;4.67;3.50;;;;;;;;;;5054777;28;20309;-62
2022/09/13 07:16:17;;;;;;;3.60;3.07;;;;;;;;;;5059298;28;20210;-62
2022/09/13 07:18:50;;;;;;;7.80;3.17;;;;;;;;;;5058408;28;20217;-63
2022/09/13 07:21:18;;;;;;;5.03;3.20;;;;;;;;;;5048697;28;20221;-60
2022/09/13 07:23:46;;;;;;;9.13;3.57;;;;;;;;;;5049875;28;20222;-62
2022/09/13 07:26:15;;;;;;;6.33;2.77;;;;;;;;;;5057043;28;20231;-62
2022/09/13 07:28:45;;;;;;;5.43;2.80;;;;;;;;;;5054295;28;20208;-60
2022/09/13 07:31:17;;;;;;;2.77;2.57;;;;;;;;;;5053184;28;20232;-60
2022/09/13 07:33:59;;;;;;;6.10;2.70;;;;;;;;;;5057482;28;20323;-60
2022/09/13 07:36:29;;;;;;;6.73;2.87;;;;;;;;;;5058271;28;20204;-61
2022/09/13 07:38:57;;;;;;;5.83;2.80;;;;;;;;;;5054741;28;20201;-61
2022/09/13 07:41:27;;;;;;;4.40;2.80;;;;;;;;;;5043793;28;20212;-61
2022/09/13 07:43:57;;;;;;;4.83;2.80;;;;;;;;;;5053728;28;20594;-61
2022/09/13 07:46:32;;;;;;;3.00;2.70;;;;;;;;;;5055472;28;20278;-62
2022/09/13 07:49:01;;;;;;;3.70;2.97;;;;;;;;;;5051183;28;20212;-61
2022/09/13 07:51:31;;;;;;;3.30;2.73;;;;;;;;;;5054048;28;20238;-60
2022/09/13 07:54:01;;;;;;;3.53;2.73;;;;;;;;;;5049711;28;20311;-60
2022/09/13 07:56:30;;;;;;;4.00;2.57;;;;;;;;;;5048501;28;20663;-60
2022/09/13 07:59:00;;;;;;;3.13;2.77;;;;;;;;;;5050363;28;20264;-61
2022/09/13 08:01:29;;;;;;;4.40;2.50;;;;;;;;;;5049575;28;20207;-61
2022/09/13 08:03:59;;;;;;;8.10;2.73;;;;;;;;;;5052128;28;20227;-60
2022/09/13 08:06:31;;;;;;;6.17;2.90;;;;;;;;;;5054733;28;20205;-60
2022/09/13 08:08:59;;;;;;;2.77;2.57;;;;;;;;;;5062240;28;20213;-60
2022/09/13 08:11:29;;;;;;;3.67;2.63;;;;;;;;;;5053231;28;20225;-61
2022/09/13 08:13:57;;;;;;;2.90;2.70;;;;;;;;;;5061274;28;20246;-59
2022/09/13 08:16:30;;;;;;;5.70;3.13;;;;;;;;;;5060200;28;20203;-61
2022/09/13 08:18:59;;;;;;;3.23;2.40;;;;;;;;;;5053850;28;20236;-61
2022/09/13 08:21:31;;;;;;;4.40;2.67;;;;;;;;;;5059952;28;20199;-63
2022/09/13 08:23:59;;;;;;;4.60;2.83;;;;;;;;;;5047685;28;20226;-62
2022/09/13 08:26:27;;;;;;;3.03;2.47;;;;;;;;;;5059141;28;20739;-64
2022/09/13 08:28:56;;;;;;;4.53;2.87;;;;;;;;;;5061016;28;20203;-63
2022/09/13 08:31:24;;;;;;;3.00;2.80;;;;;;;;;;5046190;28;20237;-60
2022/09/13 08:33:54;;;;;;;2.70;2.50;;;;;;;;;;5059392;28;20301;-61
2022/09/13 08:36:23;;;;;;;4.47;3.13;;;;;;;;;;5058126;28;20203;-61
2022/09/13 08:38:53;;;;;;;3.10;2.60;;;;;;;;;;5060732;28;20264;-62
2022/09/13 08:41:43;;;;;;;2.67;2.43;;;;;;;;;;5045657;28;20233;-61
2022/09/13 08:44:16;;;;;;;4.70;2.60;;;;;;;;;;5034621;28;20218;-61
2022/09/13 08:46:46;;;;;;;3.83;2.70;;;;;;;;;;5057661;28;20253;-62
2022/09/13 08:49:18;;;;;;;2.63;2.50;;;;;;;;;;5057773;28;20203;-63
2022/09/13 08:51:47;;;;;;;4.40;2.70;;;;;;;;;;5057991;28;20640;-63
2022/09/13 08:54:16;;;;;;;4.53;2.90;;;;;;;;;;5051500;28;20229;-61
2022/09/13 08:56:46;;;;;;;4.53;2.70;;;;;;;;;;5061251;28;20205;-62
2022/09/13 08:59:29;;;;;;;7.00;3.03;;;;;;;;;;5055873;28;20203;-63
2022/09/13 09:02:05;;;;;;;4.80;3.03;;;;;;;;;;5058016;28;20214;-63
2022/09/13 09:04:37;;;;;;;5.33;2.53;;;;;;;;;;5048289;28;20224;-64
2022/09/13 09:07:09;;;;;;;3.33;2.90;;;;;;;;;;5059352;28;20204;-62
2022/09/13 09:09:41;;;;;;;3.07;2.50;;;;;;;;;;5047083;28;20200;-62
2022/09/13 09:12:14;;;;;;;2.40;2.20;;;;;;;;;;5061563;28;20223;-62
2022/09/13 09:14:45;;;;;;;2.90;2.60;;;;;;;;;;5062493;28;20266;-60
2022/09/13 09:17:15;;;;;;;2.33;2.23;;;;;;;;;;5064327;28;20550;-62
2022/09/13 09:19:46;;;;;;;3.47;2.43;;;;;;;;;;5056910;28;20679;-61
2022/09/13 09:22:16;;;;;;;4.23;2.73;;;;;;;;;;5065058;28;20223;-60
2022/09/13 09:24:47;;;;;;;3.17;2.27;;;;;;;;;;5055058;28;20567;-60
2022/09/13 09:27:16;;;;;;;2.90;2.30;;;;;;;;;;5059397;28;20256;-60
2022/09/13 09:29:46;;;;;;;4.40;2.60;;;;;;;;;;5058439;28;20579;-61
2022/09/13 09:32:19;;;;;;;4.70;2.57;;;;;;;;;;5052920;28;20209;-60
2022/09/13 09:34:55;;;;;;;5.70;2.43;;;;;;;;;;5060695;28;20222;-61
2022/09/13 09:37:24;;;;;;;4.67;2.53;;;;;;;;;;5065086;28;20212;-61
2022/09/13 09:39:53;;;;;;;6.17;2.30;;;;;;;;;;5059685;28;20207;-61
2022/09/13 09:42:24;;;;;;;8.53;3.00;;;;;;;;;;5061065;28;20262;-62
2022/09/13 09:44:55;;;;;;;11.03;3.60;;;;;;;;;;5067988;28;20222;-61
2022/09/13 09:47:24;;;;;;;12.40;3.67;;;;;;;;;;5052383;28;20223;-61
2022/09/13 09:50:11;;;;;;;2.87;2.37;;;;;;;;;;5050949;28;20294;-61
2022/09/13 09:52:44;;;;;;;4.53;2.53;;;;;;;;;;5052932;28;20263;-61
2022/09/13 09:55:19;;;;;;;2.93;2.40;;;;;;;;;;5054765;28;20219;-61
2022/09/13 09:57:53;;;;;;;5.87;2.57;;;;;;;;;;5046946;28;20608;-61
2022/09/13 10:00:25;;;;;;;2.83;2.50;;;;;;;;;;5059213;28;20210;-61
2022/09/13 10:02:56;;;;;;;4.40;2.27;;;;;;;;;;5063075;28;20270;-60
2022/09/13 10:05:26;;;;;;;46.30;12.63;;;;;;;;;;5060883;28;20218;-59
2022/09/13 10:07:58;;;;;;;31.83;8.60;;;;;;;;;;5059604;28;20212;-59
2022/09/13 10:10:30;;;;;;;23.93;8.47;;;;;;;;;;5059300;28;20655;-60
2022/09/13 10:12:59;;;;;;;7.37;3.07;;;;;;;;;;5050369;28;20205;-60
2022/09/13 10:15:31;;;;;;;3.53;2.30;;;;;;;;;;5069147;28;20230;-59
2022/09/13 10:18:16;;;;;;;4.10;2.40;;;;;;;;;;5046569;28;20217;-60
2022/09/13 10:21:06;;;;;;;3.70;2.23;;;;;;;;;;5059413;28;20213;-61
2022/09/13 10:23:46;;;;;;;2.30;2.07;;;;;;;;;;5051226;28;20222;-62
2022/09/13 10:26:16;;;;;;;4.97;2.40;;;;;;;;;;5058570;28;21510;-62
2022/09/13 10:28:45;;;;;;;5.67;2.80;;;;;;;;;;5063339;28;20195;-63
2022/09/13 10:31:14;;;;;;;4.87;2.53;;;;;;;;;;5053924;28;20233;-64
2022/09/13 10:33:46;;;;;;;6.50;2.20;;;;;;;;;;5059385;28;20618;-62
2022/09/13 10:36:20;;;;;;;2.33;2.13;;;;;;;;;;5059349;28;20211;-63
2022/09/13 10:39:16;;;;;;;3.03;2.30;;;;;;;;;;5051407;28;20316;-64
2022/09/13 10:41:49;;;;;;;2.70;2.23;;;;;;;;;;5052116;28;20259;-61
2022/09/13 10:44:31;;;;;;;5.20;2.43;;;;;;;;;;5055069;28;20240;-60
2022/09/13 10:47:02;;;;;;;5.73;2.30;;;;;;;;;;5057603;28;20229;-62
2022/09/13 10:49:47;;;;;;;3.50;2.00;;;;;;;;;;5058493;28;20207;-61
2022/09/13 10:52:32;;;;;;;3.67;2.07;;;;;;;;;;5057388;28;20245;-62
2022/09/13 10:55:31;;;;;;;3.27;2.30;;;;;;;;;;5054117;28;20239;-62
2022/09/13 10:58:22;;;;;;;4.50;2.07;;;;;;;;;;4989859;28;20311;-63
2022/09/13 11:01:01;;;;;;;5.33;2.10;;;;;;;;;;5036826;28;20205;-61
2022/09/13 11:03:36;;;;;;;3.13;2.37;;;;;;;;;;5053244;28;20226;-61
2022/09/13 11:06:25;;;;;;;5.00;2.20;;;;;;;;;;5054835;28;20248;-60
2022/09/13 11:08:57;;;;;;;2.33;2.03;;;;;;;;;;5042715;28;20226;-61
2022/09/13 11:11:30;;;;;;;4.00;2.70;;;;;;;;;;5054377;28;20213;-61
2022/09/13 11:14:04;;;;;;;5.20;2.30;;;;;;;;;;5051529;28;20219;-61
2022/09/13 11:16:37;;;;;;;6.20;2.53;;;;;;;;;;5050130;28;20206;-63
2022/09/13 11:19:14;;;;;;;2.53;2.33;;;;;;;;;;5058899;28;20247;-61
2022/09/13 11:21:48;;;;;;;2.20;1.97;;;;;;;;;;5052850;28;20213;-62
2022/09/13 11:24:30;;;;;;;3.13;2.00;;;;;;;;;;5053776;28;20258;-66
2022/09/13 11:27:01;;;;;;;3.60;2.07;;;;;;;;;;5057593;28;20192;-65
2022/09/13 11:29:38;;;;;;;5.10;2.60;;;;;;;;;;5053005;28;20258;-65
2022/09/13 11:32:12;;;;;;;3.33;2.10;;;;;;;;;;5047947;28;20210;-65
2022/09/13 11:34:48;;;;;;;4.77;2.23;;;;;;;;;;5053522;28;20286;-65
2022/09/13 11:37:32;;;;;;;2.60;2.00;;;;;;;;;;5051915;28;20248;-66
2022/09/13 11:40:12;;;;;;;2.33;2.03;;;;;;;;;;5051147;28;20217;-65
2022/09/13 11:42:48;;;;;;;1.70;1.60;;;;;;;;;;5051766;28;20199;-65
2022/09/13 11:45:21;;;;;;;4.10;2.15;;;;;;;;;;5049759;28;20229;-67
2022/09/13 11:47:57;;;;;;;2.60;1.97;;;;;;;;;;5052135;28;20674;-64
2022/09/13 11:50:29;;;;;;;2.40;1.70;;;;;;;;;;5054442;28;20253;-67
2022/09/13 11:53:05;;;;;;;3.03;1.73;;;;;;;;;;5051513;28;20585;-67
2022/09/13 11:55:38;;;;;;;3.50;2.27;;;;;;;;;;5055761;28;20243;-63
2022/09/13 11:58:12;;;;;;;3.33;2.10;;;;;;;;;;5045653;28;20275;-61
2022/09/13 12:00:42;;;;;;;2.07;1.87;;;;;;;;;;5057687;28;20202;-62
2022/09/13 12:03:16;;;;;;;2.60;2.37;;;;;;;;;;5047480;28;20206;-64
2022/09/13 12:05:48;;;;;;;2.67;1.63;;;;;;;;;;5050405;28;20227;-65
2022/09/13 12:08:19;;;;;;;3.97;2.00;;;;;;;;;;5068251;28;20521;-64
2022/09/13 12:10:51;;;;;;;6.53;2.00;;;;;;;;;;5059057;28;20205;-64
2022/09/13 12:13:22;;;;;;;3.13;1.80;;;;;;;;;;5050906;28;21139;-64
2022/09/13 12:15:54;;;;;;;3.83;2.03;;;;;;;;;;5051860;28;20207;-64
2022/09/13 12:18:24;;;;;;;2.20;1.73;;;;;;;;;;5062847;28;20203;-65
2022/09/13 12:20:54;;;;;;;2.13;1.93;;;;;;;;;;5061765;28;20289;-63
2022/09/13 12:23:25;;;;;;;1.90;1.80;;;;;;;;;;5053063;28;20228;-65
2022/09/13 12:25:56;;;;;;;3.90;1.85;;;;;;;;;;5056762;28;20222;-65
2022/09/13 12:28:26;;;;;;;4.28;1.85;;;;;;;;;;5056712;28;20213;-64
2022/09/13 12:30:56;;;;;;;3.38;2.03;;;;;;;;;;5055805;28;20664;-70
2022/09/13 12:33:25;;;;;;;5.18;2.20;;;;;;;;;;5055754;28;20222;-70
2022/09/13 12:35:59;;;;;;;9.13;2.30;;;;;;;;;;5055753;28;20205;-69
2022/09/13 12:38:41;;;;;;;2.45;1.80;;;;;;;;;;5056853;28;20207;-68
2022/09/13 12:41:22;;;;;;;3.67;1.77;;;;;;;;;;5024182;28;20199;-71
2022/09/13 12:43:58;;;;;;;2.30;1.73;;;;;;;;;;5056227;28;20227;-68
2022/09/13 12:46:41;;;;;;;3.65;1.83;;;;;;;;;;5054866;28;20225;-71
2022/09/13 12:49:27;;;;;;;3.13;2.17;;;;;;;;;;5048315;28;20207;-70
2022/09/13 12:52:22;;;;;;;9.57;2.37;;;;;;;;;;5056580;28;20248;-69
2022/09/13 12:55:12;;;;;;;6.00;2.30;;;;;;;;;;5056314;28;20556;-68
2022/09/13 12:58:09;;;;;;;4.43;1.75;;;;;;;;;;5056454;28;20199;-69
2022/09/13 13:00:39;;;;;;;1.80;1.70;;;;;;;;;;5050771;28;20205;-64
2022/09/13 13:03:14;;;;;;;4.67;2.00;;;;;;;;;;5046158;28;20199;-63
2022/09/13 13:05:44;;;;;;;4.05;1.80;;;;;;;;;;5049337;28;20225;-63
2022/09/13 13:08:26;;;;;;;3.38;2.10;;;;;;;;;;5055436;28;20204;-62
2022/09/13 13:11:02;;;;;;;2.20;2.00;;;;;;;;;;5052582;28;20267;-64
2022/09/13 13:13:34;;;;;;;3.77;2.30;;;;;;;;;;5052422;28;20229;-63
2022/09/13 13:16:06;;;;;;;4.57;2.10;;;;;;;;;;5057000;28;20201;-64
2022/09/13 13:18:44;;;;;;;3.13;2.27;;;;;;;;;;5057331;28;20201;-63
2022/09/13 13:21:30;;;;;;;7.43;2.67;;;;;;;;;;5069709;28;20623;-65
2022/09/13 13:24:17;;;;;;;2.83;1.90;;;;;;;;;;5050847;28;20230;-65
2022/09/13 13:26:46;;;;;;;4.23;2.40;;;;;;;;;;5062385;28;20230;-65
2022/09/13 13:29:21;;;;;;;3.27;2.20;;;;;;;;;;5052109;28;20256;-65
2022/09/13 13:32:07;;;;;;;3.97;2.10;;;;;;;;;;5059117;28;20293;-67
2022/09/13 13:34:39;;;;;;;4.82;2.05;;;;;;;;;;5055711;28;20234;-64
2022/09/13 13:37:26;;;;;;;5.70;2.53;;;;;;;;;;5065174;28;20198;-64
2022/09/13 13:40:08;;;;;;;3.90;2.20;;;;;;;;;;5056130;28;20614;-65
2022/09/13 13:42:43;;;;;;;3.63;1.93;;;;;;;;;;5055602;28;20920;-64
2022/09/13 13:45:30;;;;;;;3.65;1.95;;;;;;;;;;5052605;28;20218;-64
2022/09/13 13:48:18;;;;;;;6.20;2.42;;;;;;;;;;5054970;28;20361;-62
2022/09/13 13:51:05;;;;;;;6.13;2.45;;;;;;;;;;5059286;28;20286;-64
2022/09/13 13:53:36;;;;;;;4.20;2.10;;;;;;;;;;5049105;28;20228;-65
2022/09/13 13:56:14;;;;;;;5.70;2.17;;;;;;;;;;5058136;28;20209;-65
2022/09/13 13:58:45;;;;;;;2.53;1.90;;;;;;;;;;5063543;28;20206;-65
2022/09/13 14:01:17;;;;;;;3.65;2.28;;;;;;;;;;5048850;28;20236;-66
2022/09/13 14:04:05;;;;;;;5.53;2.30;;;;;;;;;;5045358;28;20235;-65
2022/09/13 14:06:36;;;;;;;6.40;2.45;;;;;;;;;;5055480;28;20227;-67
2022/09/13 14:09:11;;;;;;;4.85;2.33;;;;;;;;;;5049531;28;20224;-64
2022/09/13 14:11:48;;;;;;;5.18;2.00;;;;;;;;;;5049866;28;20681;-64
2022/09/13 14:14:24;;;;;;;2.90;2.05;;;;;;;;;;5054061;28;20243;-63
2022/09/13 14:16:57;;;;;;;6.03;2.43;;;;;;;;;;5051177;28;20200;-63
2022/09/13 14:19:27;;;;;;;2.70;2.03;;;;;;;;;;5056285;28;20297;-63
2022/09/13 14:22:13;;;;;;;4.03;2.40;;;;;;;;;;5054533;28;20260;-63
2022/09/13 14:24:45;;;;;;;4.57;2.70;;;;;;;;;;5056089;28;20254;-63
2022/09/13 14:27:23;;;;;;;3.10;2.30;;;;;;;;;;5049450;28;20303;-62
2022/09/13 14:29:52;;;;;;;3.07;2.03;;;;;;;;;;5048836;28;20286;-62
2022/09/13 14:32:21;;;;;;;17.85;5.32;;;;;;;;;;5051722;28;20634;-63
2022/09/13 14:34:54;;;;;;;30.03;8.40;;;;;;;;;;5045650;28;20227;-63
2022/09/13 14:37:25;;;;;;;5.60;2.55;;;;;;;;;;5049409;28;20205;-63
2022/09/13 14:39:55;;;;;;;3.28;2.45;;;;;;;;;;5044148;28;20200;-63
2022/09/13 14:42:23;;;;;;;5.40;2.27;;;;;;;;;;5045788;28;20236;-63
2022/09/13 14:44:51;;;;;;;2.55;1.98;;;;;;;;;;5045659;28;20676;-63
2022/09/13 14:47:21;;;;;;;3.23;2.40;;;;;;;;;;5057304;28;20236;-63
2022/09/13 14:49:50;;;;;;;6.63;2.20;;;;;;;;;;5064015;28;20208;-63
2022/09/13 14:52:21;;;;;;;4.30;2.17;;;;;;;;;;5059073;28;20703;-63
2022/09/13 14:54:52;;;;;;;3.40;1.87;;;;;;;;;;5063348;28;20221;-63
2022/09/13 14:57:24;;;;;;;5.60;2.20;;;;;;;;;;5061243;28;20196;-63
2022/09/13 14:59:54;;;;;;;5.30;2.03;;;;;;;;;;5066824;28;20205;-63
2022/09/13 15:02:23;;;;;;;4.03;2.40;;;;;;;;;;5062829;28;20564;-63
2022/09/13 15:04:52;;;;;;;3.77;2.17;;;;;;;;;;5066379;28;20308;-63
2022/09/13 15:07:23;;;;;;;4.30;2.17;;;;;;;;;;5058714;28;20245;-63
2022/09/13 15:09:55;;;;;;;2.30;2.10;;;;;;;;;;5058133;28;20646;-63
2022/09/13 15:12:27;;;;;;;10.43;2.30;;;;;;;;;;5061241;28;20202;-63
2022/09/13 15:15:13;;;;;;;2.03;1.70;;;;;;;;;;5066038;28;20280;-63